sensor_id;sensor_type;location;lat;lon;timestamp;pressure;altitude;pressure_sealevel;temperature;humidity
58245;BME280;44550;43.864;25.986;2023-03-04T00:03:48;101278.25;;;6.45;100.00
58245;BME280;44550;43.864;25.986;2023-03-04T00:07:55;101282.56;;;6.45;100.00
58245;BME280;44550;43.864;25.986;2023-03-04T00:12:18;101277.53;;;6.49;100.00
58245;BME280;44550;43.864;25.986;2023-03-04T00:16:28;101275.50;;;6.41;100.00
58245;BME280;44550;43.864;25.986;2023-03-04T00:20:29;101275.38;;;6.36;100.00
58245;BME280;44550;43.864;25.986;2023-03-04T00:24:31;101287.50;;;6.37;100.00
58245;BME280;44550;43.864;25.986;2023-03-04T00:28:36;101281.44;;;6.37;100.00
58245;BME280;44550;43.864;25.986;2023-03-04T00:32:37;101274.94;;;6.49;100.00
58245;BME280;44550;43.864;25.986;2023-03-04T00:36:39;101271.50;;;6.50;100.00
58245;BME280;44550;43.864;25.986;2023-03-04T00:40:54;101272.47;;;6.54;100.00
58245;BME280;44550;43.864;25.986;2023-03-04T00:45:02;101269.88;;;6.54;100.00
58245;BME280;44550;43.864;25.986;2023-03-04T00:49:06;101264.19;;;6.66;100.00
58245;BME280;44550;43.864;25.986;2023-03-04T00:53:08;101268.72;;;6.73;100.00
58245;BME280;44550;43.864;25.986;2023-03-04T00:57:09;101268.63;;;6.70;100.00
58245;BME280;44550;43.864;25.986;2023-03-04T01:01:14;101276.63;;;6.49;100.00
58245;BME280;44550;43.864;25.986;2023-03-04T01:05:16;101269.63;;;6.46;100.00
58245;BME280;44550;43.864;25.986;2023-03-04T01:09:16;101273.88;;;6.44;100.00
58245;BME280;44550;43.864;25.986;2023-03-04T01:13:18;101272.25;;;6.48;100.00
58245;BME280;44550;43.864;25.986;2023-03-04T01:17:24;101267.50;;;6.34;100.00
58245;BME280;44550;43.864;25.986;2023-03-04T01:21:25;101272.88;;;6.39;100.00
58245;BME280;44550;43.864;25.986;2023-03-04T01:25:26;101271.28;;;6.17;100.00
58245;BME280;44550;43.864;25.986;2023-03-04T01:29:30;101267.16;;;6.24;100.00
58245;BME280;44550;43.864;25.986;2023-03-04T01:33:36;101270.59;;;6.23;100.00
58245;BME280;44550;43.864;25.986;2023-03-04T01:37:39;101264.06;;;6.35;100.00
58245;BME280;44550;43.864;25.986;2023-03-04T01:41:39;101268.66;;;6.43;100.00
58245;BME280;44550;43.864;25.986;2023-03-04T01:45:43;101267.81;;;6.44;100.00
58245;BME280;44550;43.864;25.986;2023-03-04T01:49:46;101271.16;;;6.40;100.00
58245;BME280;44550;43.864;25.986;2023-03-04T01:53:51;101262.94;;;6.54;100.00
58245;BME280;44550;43.864;25.986;2023-03-04T01:57:57;101249.38;;;6.63;100.00
58245;BME280;44550;43.864;25.986;2023-03-04T02:02:03;101239.88;;;6.65;100.00
58245;BME280;44550;43.864;25.986;2023-03-04T02:06:07;101238.56;;;6.49;100.00
58245;BME280;44550;43.864;25.986;2023-03-04T02:10:09;101237.28;;;6.65;100.00
58245;BME280;44550;43.864;25.986;2023-03-04T02:14:11;101235.72;;;6.70;100.00
58245;BME280;44550;43.864;25.986;2023-03-04T02:18:15;101229.47;;;6.64;100.00
58245;BME280;44550;43.864;25.986;2023-03-04T02:22:25;101229.75;;;6.73;100.00
58245;BME280;44550;43.864;25.986;2023-03-04T02:26:32;101237.28;;;6.94;100.00
58245;BME280;44550;43.864;25.986;2023-03-04T02:30:35;101234.28;;;6.80;100.00
58245;BME280;44550;43.864;25.986;2023-03-04T02:34:45;101226.06;;;6.95;100.00
58245;BME280;44550;43.864;25.986;2023-03-04T02:38:54;101233.13;;;6.99;100.00
58245;BME280;44550;43.864;25.986;2023-03-04T02:43:13;101235.97;;;7.08;100.00
58245;BME280;44550;43.864;25.986;2023-03-04T02:47:16;101243.44;;;6.96;100.00
58245;BME280;44550;43.864;25.986;2023-03-04T02:51:21;101243.81;;;6.79;100.00
58245;BME280;44550;43.864;25.986;2023-03-04T02:55:22;101230.00;;;6.82;100.00
58245;BME280;44550;43.864;25.986;2023-03-04T02:59:27;101224.03;;;6.85;100.00
58245;BME280;44550;43.864;25.986;2023-03-04T03:03:29;101227.00;;;6.68;100.00
58245;BME280;44550;43.864;25.986;2023-03-04T03:07:31;101221.47;;;6.57;100.00
58245;BME280;44550;43.864;25.986;2023-03-04T03:11:52;101217.16;;;6.58;100.00
58245;BME280;44550;43.864;25.986;2023-03-04T03:16:05;101210.31;;;6.60;100.00
58245;BME280;44550;43.864;25.986;2023-03-04T03:20:11;101210.91;;;6.80;100.00
58245;BME280;44550;43.864;25.986;2023-03-04T03:24:15;101218.72;;;6.81;100.00
58245;BME280;44550;43.864;25.986;2023-03-04T03:28:19;101222.47;;;6.91;100.00
58245;BME280;44550;43.864;25.986;2023-03-04T03:32:24;101218.63;;;7.07;100.00
58245;BME280;44550;43.864;25.986;2023-03-04T03:36:26;101224.31;;;6.95;100.00
58245;BME280;44550;43.864;25.986;2023-03-04T03:40:29;101221.78;;;6.68;100.00
58245;BME280;44550;43.864;25.986;2023-03-04T03:44:33;101222.16;;;6.52;100.00
58245;BME280;44550;43.864;25.986;2023-03-04T03:48:36;101224.88;;;6.28;100.00
58245;BME280;44550;43.864;25.986;2023-03-04T03:52:39;101219.44;;;6.20;100.00
58245;BME280;44550;43.864;25.986;2023-03-04T03:56:41;101216.53;;;6.11;100.00
58245;BME280;44550;43.864;25.986;2023-03-04T04:00:43;101213.50;;;5.97;100.00
58245;BME280;44550;43.864;25.986;2023-03-04T04:04:46;101214.69;;;6.07;100.00
58245;BME280;44550;43.864;25.986;2023-03-04T04:08:47;101210.63;;;6.15;100.00
58245;BME280;44550;43.864;25.986;2023-03-04T04:12:49;101217.16;;;6.29;100.00
58245;BME280;44550;43.864;25.986;2023-03-04T04:17:07;101210.47;;;6.38;100.00
58245;BME280;44550;43.864;25.986;2023-03-04T04:21:10;101218.41;;;6.42;100.00
58245;BME280;44550;43.864;25.986;2023-03-04T04:25:28;101220.28;;;6.46;100.00
58245;BME280;44550;43.864;25.986;2023-03-04T04:29:33;101223.94;;;6.53;100.00
58245;BME280;44550;43.864;25.986;2023-03-04T04:33:39;101226.78;;;6.61;100.00
58245;BME280;44550;43.864;25.986;2023-03-04T04:37:50;101235.03;;;6.76;100.00
58245;BME280;44550;43.864;25.986;2023-03-04T04:41:59;101231.97;;;6.89;100.00
58245;BME280;44550;43.864;25.986;2023-03-04T04:46:02;101233.75;;;6.92;100.00
58245;BME280;44550;43.864;25.986;2023-03-04T04:50:15;101245.38;;;6.74;100.00
58245;BME280;44550;43.864;25.986;2023-03-04T04:54:19;101243.09;;;6.56;100.00
58245;BME280;44550;43.864;25.986;2023-03-04T04:58:25;101236.22;;;6.58;100.00
58245;BME280;44550;43.864;25.986;2023-03-04T05:02:31;101246.69;;;6.33;100.00
58245;BME280;44550;43.864;25.986;2023-03-04T05:06:42;101246.41;;;5.98;100.00
58245;BME280;44550;43.864;25.986;2023-03-04T05:10:50;101238.69;;;6.00;100.00
58245;BME280;44550;43.864;25.986;2023-03-04T05:15:05;101229.50;;;6.09;100.00
58245;BME280;44550;43.864;25.986;2023-03-04T05:19:24;101236.03;;;5.98;100.00
58245;BME280;44550;43.864;25.986;2023-03-04T05:23:27;101240.22;;;5.95;100.00
58245;BME280;44550;43.864;25.986;2023-03-04T05:27:31;101253.41;;;6.26;100.00
58245;BME280;44550;43.864;25.986;2023-03-04T05:31:33;101258.38;;;6.46;100.00
58245;BME280;44550;43.864;25.986;2023-03-04T05:35:40;101257.56;;;6.48;100.00
58245;BME280;44550;43.864;25.986;2023-03-04T05:39:43;101255.31;;;6.59;100.00
58245;BME280;44550;43.864;25.986;2023-03-04T05:43:52;101261.81;;;6.73;100.00
58245;BME280;44550;43.864;25.986;2023-03-04T05:47:55;101268.22;;;6.85;100.00
58245;BME280;44550;43.864;25.986;2023-03-04T05:52:11;101270.78;;;6.83;100.00
58245;BME280;44550;43.864;25.986;2023-03-04T05:56:13;101269.06;;;6.83;100.00
58245;BME280;44550;43.864;25.986;2023-03-04T06:00:29;101262.31;;;6.90;100.00
58245;BME280;44550;43.864;25.986;2023-03-04T06:04:31;101265.88;;;6.92;100.00
58245;BME280;44550;43.864;25.986;2023-03-04T06:08:32;101273.56;;;6.89;100.00
58245;BME280;44550;43.864;25.986;2023-03-04T06:12:38;101267.00;;;6.73;100.00
58245;BME280;44550;43.864;25.986;2023-03-04T06:16:47;101270.72;;;6.81;100.00
58245;BME280;44550;43.864;25.986;2023-03-04T06:20:48;101269.25;;;6.90;100.00
58245;BME280;44550;43.864;25.986;2023-03-04T06:24:51;101288.91;;;7.10;100.00
58245;BME280;44550;43.864;25.986;2023-03-04T06:28:52;101296.34;;;7.26;100.00
58245;BME280;44550;43.864;25.986;2023-03-04T06:32:57;101291.91;;;7.54;100.00
58245;BME280;44550;43.864;25.986;2023-03-04T06:37:01;101294.28;;;8.10;100.00
58245;BME280;44550;43.864;25.986;2023-03-04T06:41:07;101298.38;;;8.00;100.00
58245;BME280;44550;43.864;25.986;2023-03-04T06:45:21;101299.38;;;8.38;100.00
58245;BME280;44550;43.864;25.986;2023-03-04T06:49:23;101300.16;;;8.37;100.00
58245;BME280;44550;43.864;25.986;2023-03-04T06:53:25;101298.34;;;8.33;100.00
58245;BME280;44550;43.864;25.986;2023-03-04T06:57:30;101305.09;;;8.25;100.00
58245;BME280;44550;43.864;25.986;2023-03-04T07:01:44;101302.50;;;8.25;100.00
58245;BME280;44550;43.864;25.986;2023-03-04T07:10:11;101292.09;;;7.92;100.00
58245;BME280;44550;43.864;25.986;2023-03-04T07:14:12;101293.00;;;7.94;100.00
58245;BME280;44550;43.864;25.986;2023-03-04T07:18:15;101290.00;;;8.12;100.00
58245;BME280;44550;43.864;25.986;2023-03-04T07:22:16;101292.28;;;8.34;100.00
58245;BME280;44550;43.864;25.986;2023-03-04T07:26:20;101283.97;;;8.14;100.00
58245;BME280;44550;43.864;25.986;2023-03-04T07:30:25;101282.19;;;8.12;100.00
58245;BME280;44550;43.864;25.986;2023-03-04T07:34:26;101284.72;;;8.09;100.00
58245;BME280;44550;43.864;25.986;2023-03-04T07:38:29;101279.31;;;8.37;100.00
58245;BME280;44550;43.864;25.986;2023-03-04T07:42:31;101275.63;;;8.62;100.00
58245;BME280;44550;43.864;25.986;2023-03-04T07:46:37;101270.84;;;8.81;100.00
58245;BME280;44550;43.864;25.986;2023-03-04T07:50:37;101272.94;;;8.58;100.00
58245;BME280;44550;43.864;25.986;2023-03-04T07:54:45;101258.69;;;8.81;100.00
58245;BME280;44550;43.864;25.986;2023-03-04T07:58:52;101262.00;;;8.74;100.00
58245;BME280;44550;43.864;25.986;2023-03-04T08:03:07;101257.75;;;9.20;100.00
58245;BME280;44550;43.864;25.986;2023-03-04T08:07:09;101263.31;;;9.82;98.83
58245;BME280;44550;43.864;25.986;2023-03-04T08:11:11;101258.78;;;9.71;96.43
58245;BME280;44550;43.864;25.986;2023-03-04T08:15:21;101256.22;;;9.74;96.58
58245;BME280;44550;43.864;25.986;2023-03-04T08:19:40;101249.13;;;10.17;95.87
58245;BME280;44550;43.864;25.986;2023-03-04T08:23:43;101243.16;;;9.74;95.43
58245;BME280;44550;43.864;25.986;2023-03-04T08:27:44;101236.91;;;9.65;96.10
58245;BME280;44550;43.864;25.986;2023-03-04T08:31:48;101229.75;;;9.57;95.96
58245;BME280;44550;43.864;25.986;2023-03-04T08:35:48;101234.56;;;9.34;95.60
58245;BME280;44550;43.864;25.986;2023-03-04T08:39:49;101236.06;;;9.21;96.16
58245;BME280;44550;43.864;25.986;2023-03-04T08:43:51;101227.50;;;9.30;96.23
58245;BME280;44550;43.864;25.986;2023-03-04T08:47:54;101227.28;;;9.63;97.16
58245;BME280;44550;43.864;25.986;2023-03-04T08:51:56;101220.22;;;10.07;95.07
58245;BME280;44550;43.864;25.986;2023-03-04T08:56:00;101219.44;;;10.13;94.00
58245;BME280;44550;43.864;25.986;2023-03-04T09:00:23;101218.09;;;9.83;96.32
58245;BME280;44550;43.864;25.986;2023-03-04T09:04:28;101216.16;;;9.73;97.19
58245;BME280;44550;43.864;25.986;2023-03-04T09:08:29;101203.03;;;10.22;96.50
58245;BME280;44550;43.864;25.986;2023-03-04T09:12:35;101198.72;;;10.25;93.58
58245;BME280;44550;43.864;25.986;2023-03-04T09:16:43;101195.06;;;10.70;91.41
58245;BME280;44550;43.864;25.986;2023-03-04T09:20:53;101198.09;;;10.37;92.38
58245;BME280;44550;43.864;25.986;2023-03-04T09:29:17;101181.72;;;10.50;93.59
58245;BME280;44550;43.864;25.986;2023-03-04T09:33:19;101186.91;;;11.14;91.04
58245;BME280;44550;43.864;25.986;2023-03-04T09:37:23;101182.84;;;11.45;88.18
58245;BME280;44550;43.864;25.986;2023-03-04T09:41:36;101172.06;;;11.13;88.28
58245;BME280;44550;43.864;25.986;2023-03-04T09:45:40;101171.75;;;10.87;90.16
58245;BME280;44550;43.864;25.986;2023-03-04T09:49:47;101170.34;;;11.17;89.32
58245;BME280;44550;43.864;25.986;2023-03-04T09:54:02;101168.63;;;11.19;88.18
58245;BME280;44550;43.864;25.986;2023-03-04T09:58:20;101155.63;;;11.28;87.29
58245;BME280;44550;43.864;25.986;2023-03-04T10:02:26;101158.97;;;11.13;88.62
58245;BME280;44550;43.864;25.986;2023-03-04T10:06:33;101148.38;;;11.02;89.83
58245;BME280;44550;43.864;25.986;2023-03-04T10:10:42;101153.81;;;11.21;89.93
58245;BME280;44550;43.864;25.986;2023-03-04T10:14:45;101142.75;;;11.46;89.12
58245;BME280;44550;43.864;25.986;2023-03-04T10:18:53;101136.44;;;11.27;89.84
58245;BME280;44550;43.864;25.986;2023-03-04T10:23:18;101117.19;;;11.24;87.40
58245;BME280;44550;43.864;25.986;2023-03-04T10:27:37;101123.03;;;10.98;89.05
58245;BME280;44550;43.864;25.986;2023-03-04T10:31:39;101119.75;;;11.18;89.54
58245;BME280;44550;43.864;25.986;2023-03-04T10:35:45;101102.31;;;11.18;89.81
58245;BME280;44550;43.864;25.986;2023-03-04T10:39:51;101103.44;;;11.43;89.53
58245;BME280;44550;43.864;25.986;2023-03-04T10:44:02;101097.38;;;11.50;85.93
58245;BME280;44550;43.864;25.986;2023-03-04T10:48:22;101090.94;;;11.15;88.19
58245;BME280;44550;43.864;25.986;2023-03-04T10:52:28;101082.34;;;11.28;88.05
58245;BME280;44550;43.864;25.986;2023-03-04T10:56:34;101066.78;;;11.45;87.71
58245;BME280;44550;43.864;25.986;2023-03-04T11:00:45;101057.88;;;11.23;88.99
58245;BME280;44550;43.864;25.986;2023-03-04T11:04:51;101053.66;;;11.40;88.42
58245;BME280;44550;43.864;25.986;2023-03-04T11:09:01;101041.31;;;11.27;89.89
58245;BME280;44550;43.864;25.986;2023-03-04T11:13:11;101031.91;;;11.50;88.87
58245;BME280;44550;43.864;25.986;2023-03-04T11:21:41;101025.22;;;11.86;84.75
58245;BME280;44550;43.864;25.986;2023-03-04T11:25:57;101023.44;;;11.85;85.82
58245;BME280;44550;43.864;25.986;2023-03-04T11:30:12;101009.38;;;11.72;86.28
58245;BME280;44550;43.864;25.986;2023-03-04T11:34:28;101006.94;;;12.00;84.14
58245;BME280;44550;43.864;25.986;2023-03-04T11:38:38;101003.59;;;12.33;84.31
58245;BME280;44550;43.864;25.986;2023-03-04T11:42:53;100988.00;;;12.79;82.35
58245;BME280;44550;43.864;25.986;2023-03-04T11:47:18;100987.13;;;13.03;80.17
58245;BME280;44550;43.864;25.986;2023-03-04T11:51:24;100978.38;;;12.97;80.19
58245;BME280;44550;43.864;25.986;2023-03-04T11:55:42;100980.09;;;12.68;81.06
58245;BME280;44550;43.864;25.986;2023-03-04T11:59:55;100975.78;;;12.98;79.79
58245;BME280;44550;43.864;25.986;2023-03-04T12:04:20;100975.56;;;12.18;83.23
58245;BME280;44550;43.864;25.986;2023-03-04T12:17:45;100956.44;;;12.50;80.40
58245;BME280;44550;43.864;25.986;2023-03-04T12:22:04;100946.56;;;11.83;nan
58245;BME280;44550;43.864;25.986;2023-03-04T12:26:24;100963.28;;;12.04;84.07
58245;BME280;44550;43.864;25.986;2023-03-04T12:30:39;100945.94;;;12.55;82.30
58245;BME280;44550;43.864;25.986;2023-03-04T12:34:54;100938.97;;;12.55;81.48
58245;BME280;44550;43.864;25.986;2023-03-04T12:39:04;100939.78;;;12.33;83.15
58245;BME280;44550;43.864;25.986;2023-03-04T12:43:23;100930.22;;;12.64;81.55
58245;BME280;44550;43.864;25.986;2023-03-04T12:47:31;100924.13;;;12.91;78.71
58245;BME280;44550;43.864;25.986;2023-03-04T12:51:42;100922.34;;;12.56;79.22
58245;BME280;44550;43.864;25.986;2023-03-04T12:56:24;100910.13;;;12.52;79.71
58245;BME280;44550;43.864;25.986;2023-03-04T13:00:42;100904.91;;;12.95;78.76
58245;BME280;44550;43.864;25.986;2023-03-04T13:05:14;100901.38;;;13.30;77.27
58245;BME280;44550;43.864;25.986;2023-03-04T13:09:44;100889.97;;;13.49;76.07
58245;BME280;44550;43.864;25.986;2023-03-04T13:14:22;100883.88;;;13.41;75.89
58245;BME280;44550;43.864;25.986;2023-03-04T13:18:43;100872.38;;;13.70;75.48
58245;BME280;44550;43.864;25.986;2023-03-04T13:54:50;100832.78;;;14.03;73.25
58245;BME280;44550;43.864;25.986;2023-03-04T14:00:05;100825.13;;;13.59;73.70
58245;BME280;44550;43.864;25.986;2023-03-04T14:05:04;100817.31;;;13.45;75.12
58245;BME280;44550;43.864;25.986;2023-03-04T14:28:46;100784.84;;;13.57;75.63
58245;BME280;44550;43.864;25.986;2023-03-04T14:37:27;100774.38;;;13.46;75.62
58245;BME280;44550;43.864;25.986;2023-03-04T14:42:00;100769.88;;;13.70;73.32
58245;BME280;44550;43.864;25.986;2023-03-04T14:46:20;100763.72;;;13.77;72.49
58245;BME280;44550;43.864;25.986;2023-03-04T14:50:46;100755.03;;;13.62;73.52
58245;BME280;44550;43.864;25.986;2023-03-04T14:59:33;100753.34;;;13.55;73.84
58245;BME280;44550;43.864;25.986;2023-03-04T15:03:55;100748.81;;;13.79;74.02
58245;BME280;44550;43.864;25.986;2023-03-04T15:08:20;100749.72;;;13.73;73.78
58245;BME280;44550;43.864;25.986;2023-03-04T15:17:22;100739.13;;;13.89;73.64
58245;BME280;44550;43.864;25.986;2023-03-04T15:21:36;100742.72;;;13.75;73.04
58245;BME280;44550;43.864;25.986;2023-03-04T15:25:52;100743.66;;;13.60;73.01
58245;BME280;44550;43.864;25.986;2023-03-04T15:30:18;100735.00;;;13.45;73.89
58245;BME280;44550;43.864;25.986;2023-03-04T15:34:26;100739.34;;;13.44;74.20
58245;BME280;44550;43.864;25.986;2023-03-04T15:38:30;100735.00;;;13.43;74.25
58245;BME280;44550;43.864;25.986;2023-03-04T15:42:33;100733.25;;;13.40;73.70
58245;BME280;44550;43.864;25.986;2023-03-04T15:46:32;100719.31;;;13.22;73.56
58245;BME280;44550;43.864;25.986;2023-03-04T15:50:47;100721.94;;;13.29;73.76
58245;BME280;44550;43.864;25.986;2023-03-04T15:54:58;100716.72;;;13.15;73.07
58245;BME280;44550;43.864;25.986;2023-03-04T15:59:08;100708.84;;;13.15;72.73
58245;BME280;44550;43.864;25.986;2023-03-04T16:03:25;100715.00;;;13.08;72.81
58245;BME280;44550;43.864;25.986;2023-03-04T16:07:39;100704.47;;;13.10;71.49
58245;BME280;44550;43.864;25.986;2023-03-04T16:11:47;100711.53;;;12.99;71.75
58245;BME280;44550;43.864;25.986;2023-03-04T16:25:16;100712.47;;;12.75;71.79
58245;BME280;44550;43.864;25.986;2023-03-04T16:29:27;100709.88;;;12.62;72.60
58245;BME280;44550;43.864;25.986;2023-03-04T16:33:39;100716.91;;;12.45;73.49
58245;BME280;44550;43.864;25.986;2023-03-04T16:37:41;100718.69;;;12.35;74.29
58245;BME280;44550;43.864;25.986;2023-03-04T16:42:14;100716.03;;;12.28;75.00
58245;BME280;44550;43.864;25.986;2023-03-04T16:46:22;100724.78;;;12.07;75.82
58245;BME280;44550;43.864;25.986;2023-03-04T16:50:42;100722.16;;;12.11;76.27
58245;BME280;44550;43.864;25.986;2023-03-04T16:54:46;100725.66;;;12.01;76.82
58245;BME280;44550;43.864;25.986;2023-03-04T16:59:01;100731.75;;;11.88;77.68
58245;BME280;44550;43.864;25.986;2023-03-04T17:03:15;100725.63;;;11.95;78.04
58245;BME280;44550;43.864;25.986;2023-03-04T17:07:37;100726.47;;;11.77;78.07
58245;BME280;44550;43.864;25.986;2023-03-04T17:11:45;100730.81;;;11.69;78.61
58245;BME280;44550;43.864;25.986;2023-03-04T17:15:51;100732.53;;;11.56;79.36
58245;BME280;44550;43.864;25.986;2023-03-04T17:20:05;100723.78;;;11.54;79.35
58245;BME280;44550;43.864;25.986;2023-03-04T17:24:20;100720.28;;;11.46;79.60
58245;BME280;44550;43.864;25.986;2023-03-04T17:28:54;100724.66;;;11.50;80.23
58245;BME280;44550;43.864;25.986;2023-03-04T17:32:55;100726.28;;;11.10;82.12
58245;BME280;44550;43.864;25.986;2023-03-04T17:37:10;100728.91;;;11.13;82.48
58245;BME280;44550;43.864;25.986;2023-03-04T17:41:34;100732.38;;;11.12;83.06
58245;BME280;44550;43.864;25.986;2023-03-04T17:45:41;100741.09;;;11.14;82.80
58245;BME280;44550;43.864;25.986;2023-03-04T17:49:58;100736.72;;;11.11;82.36
58245;BME280;44550;43.864;25.986;2023-03-04T17:54:05;100727.16;;;11.18;81.45
58245;BME280;44550;43.864;25.986;2023-03-04T17:58:13;100725.38;;;11.06;82.21
58245;BME280;44550;43.864;25.986;2023-03-04T18:02:27;100727.06;;;10.95;82.80
58245;BME280;44550;43.864;25.986;2023-03-04T18:06:35;100726.97;;;10.76;83.72
58245;BME280;44550;43.864;25.986;2023-03-04T18:10:44;100726.13;;;10.84;83.78
58245;BME280;44550;43.864;25.986;2023-03-04T18:14:50;100720.75;;;10.57;84.14
58245;BME280;44550;43.864;25.986;2023-03-04T18:18:59;100721.63;;;10.58;83.97
58245;BME280;44550;43.864;25.986;2023-03-04T18:23:01;100725.03;;;10.48;84.55
58245;BME280;44550;43.864;25.986;2023-03-04T18:27:07;100721.50;;;10.43;84.56
58245;BME280;44550;43.864;25.986;2023-03-04T18:31:16;100721.47;;;10.33;84.26
58245;BME280;44550;43.864;25.986;2023-03-04T18:35:19;100722.22;;;10.23;84.80
58245;BME280;44550;43.864;25.986;2023-03-04T18:39:21;100723.16;;;10.31;85.04
58245;BME280;44550;43.864;25.986;2023-03-04T18:43:27;100719.59;;;10.20;85.15
58245;BME280;44550;43.864;25.986;2023-03-04T18:47:29;100721.19;;;10.06;85.75
58245;BME280;44550;43.864;25.986;2023-03-04T18:51:34;100719.25;;;9.85;86.77
58245;BME280;44550;43.864;25.986;2023-03-04T18:55:37;100724.59;;;9.99;86.62
58245;BME280;44550;43.864;25.986;2023-03-04T18:59:51;100728.97;;;10.00;86.21
58245;BME280;44550;43.864;25.986;2023-03-04T19:04:19;100725.44;;;9.95;86.49
58245;BME280;44550;43.864;25.986;2023-03-04T19:08:26;100727.94;;;9.81;86.77
58245;BME280;44550;43.864;25.986;2023-03-04T19:12:31;100725.22;;;9.73;87.22
58245;BME280;44550;43.864;25.986;2023-03-04T19:16:40;100733.06;;;9.72;87.61
58245;BME280;44550;43.864;25.986;2023-03-04T19:20:49;100728.69;;;9.69;87.47
58245;BME280;44550;43.864;25.986;2023-03-04T19:29:33;100730.41;;;9.69;87.13
58245;BME280;44550;43.864;25.986;2023-03-04T19:39:03;100732.09;;;9.62;87.29
58245;BME280;44550;43.864;25.986;2023-03-04T19:43:08;100731.25;;;9.64;86.84
58245;BME280;44550;43.864;25.986;2023-03-04T19:47:14;100733.75;;;9.55;86.93
58245;BME280;44550;43.864;25.986;2023-03-04T19:51:23;100738.19;;;9.62;86.89
58245;BME280;44550;43.864;25.986;2023-03-04T19:55:37;100737.44;;;9.74;86.40
58245;BME280;44550;43.864;25.986;2023-03-04T19:59:43;100734.88;;;9.79;86.03
58245;BME280;44550;43.864;25.986;2023-03-04T20:03:48;100732.22;;;9.74;86.34
58245;BME280;44550;43.864;25.986;2023-03-04T20:07:51;100734.81;;;9.73;86.08
58245;BME280;44550;43.864;25.986;2023-03-04T20:11:55;100735.50;;;9.55;86.98
58245;BME280;44550;43.864;25.986;2023-03-04T20:16:16;100731.16;;;9.54;87.06
58245;BME280;44550;43.864;25.986;2023-03-04T20:20:16;100735.44;;;9.49;87.45
58245;BME280;44550;43.864;25.986;2023-03-04T20:24:20;100739.81;;;9.53;87.28
58245;BME280;44550;43.864;25.986;2023-03-04T20:28:30;100740.66;;;9.49;87.54
58245;BME280;44550;43.864;25.986;2023-03-04T20:32:58;100736.16;;;9.37;88.13
58245;BME280;44550;43.864;25.986;2023-03-04T20:37:24;100737.81;;;9.30;88.02
58245;BME280;44550;43.864;25.986;2023-03-04T20:41:30;100738.69;;;9.28;88.14
58245;BME280;44550;43.864;25.986;2023-03-04T20:45:38;100745.53;;;9.21;87.77
58245;BME280;44550;43.864;25.986;2023-03-04T20:49:45;100742.06;;;9.24;87.06
58245;BME280;44550;43.864;25.986;2023-03-04T20:53:45;100737.75;;;9.26;86.46
58245;BME280;44550;43.864;25.986;2023-03-04T20:57:57;100737.72;;;9.21;86.29
58245;BME280;44550;43.864;25.986;2023-03-04T21:02:04;100740.13;;;9.06;86.32
58245;BME280;44550;43.864;25.986;2023-03-04T21:06:11;100737.44;;;9.00;86.17
58245;BME280;44550;43.864;25.986;2023-03-04T21:10:12;100726.09;;;8.96;85.95
58245;BME280;44550;43.864;25.986;2023-03-04T21:14:17;100727.78;;;8.92;86.01
58245;BME280;44550;43.864;25.986;2023-03-04T21:18:21;100728.69;;;8.94;85.69
58245;BME280;44550;43.864;25.986;2023-03-04T21:22:21;100729.38;;;8.83;85.47
58245;BME280;44550;43.864;25.986;2023-03-04T21:26:26;100717.03;;;8.68;85.57
58245;BME280;44550;43.864;25.986;2023-03-04T21:30:28;100720.59;;;8.76;85.03
58245;BME280;44550;43.864;25.986;2023-03-04T21:34:35;100724.91;;;8.71;85.35
58245;BME280;44550;43.864;25.986;2023-03-04T21:38:49;100729.00;;;8.57;85.74
58245;BME280;44550;43.864;25.986;2023-03-04T21:42:59;100717.75;;;8.59;85.96
58245;BME280;44550;43.864;25.986;2023-03-04T21:47:09;100714.09;;;8.45;86.30
58245;BME280;44550;43.864;25.986;2023-03-04T21:51:28;100708.78;;;8.39;87.12
58245;BME280;44550;43.864;25.986;2023-03-04T21:55:54;100700.84;;;8.34;87.56
58245;BME280;44550;43.864;25.986;2023-03-04T22:00:07;100707.69;;;8.26;87.66
58245;BME280;44550;43.864;25.986;2023-03-04T22:04:12;100704.09;;;8.19;87.50
58245;BME280;44550;43.864;25.986;2023-03-04T22:08:17;100700.53;;;8.14;87.59
58245;BME280;44550;43.864;25.986;2023-03-04T22:12:35;100711.00;;;8.16;87.28
58245;BME280;44550;43.864;25.986;2023-03-04T22:16:39;100702.91;;;8.00;86.68
58245;BME280;44550;43.864;25.986;2023-03-04T22:20:57;100698.50;;;7.96;86.53
58245;BME280;44550;43.864;25.986;2023-03-04T22:25:17;100687.97;;;7.89;86.82
58245;BME280;44550;43.864;25.986;2023-03-04T22:29:21;100685.78;;;7.63;88.47
58245;BME280;44550;43.864;25.986;2023-03-04T22:33:23;100686.84;;;7.74;88.51
58245;BME280;44550;43.864;25.986;2023-03-04T22:41:52;100681.53;;;7.67;88.87
58245;BME280;44550;43.864;25.986;2023-03-04T22:45:55;100673.41;;;7.48;89.27
58245;BME280;44550;43.864;25.986;2023-03-04T22:50:07;100676.81;;;7.46;89.19
58245;BME280;44550;43.864;25.986;2023-03-04T22:54:16;100656.88;;;7.46;88.40
58245;BME280;44550;43.864;25.986;2023-03-04T22:58:20;100667.34;;;7.49;87.57
58245;BME280;44550;43.864;25.986;2023-03-04T23:02:30;100662.03;;;7.45;87.29
58245;BME280;44550;43.864;25.986;2023-03-04T23:06:37;100662.03;;;7.43;87.21
58245;BME280;44550;43.864;25.986;2023-03-04T23:10:45;100654.22;;;7.45;87.09
58245;BME280;44550;43.864;25.986;2023-03-04T23:14:50;100653.41;;;7.46;86.35
58245;BME280;44550;43.864;25.986;2023-03-04T23:18:54;100658.69;;;7.50;86.50
58245;BME280;44550;43.864;25.986;2023-03-04T23:23:04;100655.09;;;7.44;86.72